Time,TemperatureF,DewpointF,PressureIn,WindDirection,WindDirectionDegrees,WindSpeedMPH,WindSpeedGustMPH,Humidity,HourlyPrecipIn,Conditions,Clouds,dailyrainin,SoftwareType,DateUTC
2013-02-24 00:09:00,45.3,37.0,30.21,NE,41,4.0,7.0,72,0.00,,,0.00,weatherlink.com 1.10,2013-02-24 08:09:00,
2013-02-24 00:24:00,45.2,35.0,30.22,NE,35,4.0,6.0,68,0.00,,,0.00,weatherlink.com 1.10,2013-02-24 08:24:00,
2013-02-24 00:39:00,45.1,35.0,30.22,North,356,3.0,6.0,67,0.00,,,0.00,weatherlink.com 1.10,2013-02-24 08:39:00,
2013-02-24 00:54:00,45.6,34.0,30.22,NW,310,1.0,5.0,64,0.00,,,0.00,weatherlink.com 1.10,2013-02-24 08:54:00,
2013-02-24 01:09:00,45.1,34.0,30.23,NNE,13,2.0,4.0,66,0.00,,,0.00,weatherlink.com 1.10,2013-02-24 09:09:00,
2013-02-24 01:24:00,44.8,34.0,30.22,North,351,2.0,7.0,66,0.00,,,0.00,weatherlink.com 1.10,2013-02-24 09:24:00,
2013-02-24 01:39:00,45.3,32.0,30.22,ENE,68,0.0,6.0,60,0.00,,,0.00,weatherlink.com 1.10,2013-02-24 09:39:00,
2013-02-24 01:54:00,45.5,31.0,30.22,North,7,3.0,8.0,58,0.00,,,0.00,weatherlink.com 1.10,2013-02-24 09:54:00,
2013-02-24 02:09:00,44.8,31.0,30.22,NNE,12,1.0,4.0,60,0.00,,,0.00,weatherlink.com 1.10,2013-02-24 10:09:00,
2013-02-24 02:24:00,44.7,32.0,30.21,ENE,59,6.0,6.0,62,0.00,,,0.00,weatherlink.com 1.10,2013-02-24 10:24:00,
2013-02-24 02:39:00,45.9,31.0,30.21,North,7,2.0,10.0,56,0.00,,,0.00,weatherlink.com 1.10,2013-02-24 10:39:00,
2013-02-24 02:54:00,46.4,29.0,30.20,NNE,33,2.0,8.0,51,0.00,,,0.00,weatherlink.com 1.10,2013-02-24 10:54:00,
2013-02-24 03:09:00,46.1,30.0,30.20,NNW,328,2.0,6.0,53,0.00,,,0.00,weatherlink.com 1.10,2013-02-24 11:09:00,
2013-02-24 03:24:00,45.7,31.0,30.20,NE,50,3.0,7.0,56,0.00,,,0.00,weatherlink.com 1.10,2013-02-24 11:24:00,
2013-02-24 03:39:00,45.2,31.0,30.20,NE,42,4.0,6.0,58,0.00,,,0.00,weatherlink.com 1.10,2013-02-24 11:39:00,
2013-02-24 03:54:00,45.8,30.0,30.20,North,9,4.0,9.0,54,0.00,,,0.00,weatherlink.com 1.10,2013-02-24 11:54:00,
2013-02-24 04:09:00,46.1,30.0,30.20,ENE,65,1.0,5.0,53,0.00,,,0.00,weatherlink.com 1.10,2013-02-24 12:09:00,
2013-02-24 04:25:00,44.8,34.0,30.21,SE,143,2.0,3.0,65,0.00,,,0.00,weatherlink.com 1.10,2013-02-24 12:25:00,
2013-02-24 04:40:00,43.6,34.0,30.20,SE,143,0.0,0.0,70,0.00,,,0.00,weatherlink.com 1.10,2013-02-24 12:40:00,
2013-02-24 04:55:00,42.9,34.0,30.21,ESE,120,0.0,0.0,72,0.00,,,0.00,weatherlink.com 1.10,2013-02-24 12:55:00,
2013-02-24 05:10:00,42.7,34.0,30.21,North,11,5.0,5.0,70,0.00,,,0.00,weatherlink.com 1.10,2013-02-24 13:10:00,
2013-02-24 05:25:00,44.9,29.0,30.21,NNE,33,2.0,5.0,55,0.00,,,0.00,weatherlink.com 1.10,2013-02-24 13:25:00,
2013-02-24 05:40:00,45.6,29.0,30.21,East,80,2.0,5.0,53,0.00,,,0.00,weatherlink.com 1.10,2013-02-24 13:40:00,
2013-02-24 05:55:00,44.7,31.0,30.22,NNW,328,1.0,3.0,60,0.00,,,0.00,weatherlink.com 1.10,2013-02-24 13:55:00,
2013-02-24 06:10:00,43.4,33.0,30.22,NNE,24,1.0,5.0,68,0.00,,,0.00,weatherlink.com 1.10,2013-02-24 14:10:00,
2013-02-24 06:25:00,42.6,33.0,30.22,NNE,33,1.0,3.0,70,0.00,,,0.00,weatherlink.com 1.10,2013-02-24 14:25:00,
2013-02-24 06:40:00,42.2,33.0,30.22,NNE,27,1.0,4.0,70,0.00,,,0.00,weatherlink.com 1.10,2013-02-24 14:40:00,
2013-02-24 06:55:00,44.4,30.0,30.22,NE,50,5.0,7.0,58,0.00,,,0.00,weatherlink.com 1.10,2013-02-24 14:55:00,
2013-02-24 07:10:00,45.9,29.0,30.22,North,9,5.0,10.0,51,0.00,,,0.00,weatherlink.com 1.10,2013-02-24 15:10:00,
2013-02-24 07:25:00,45.8,28.0,30.23,NNW,340,4.0,10.0,51,0.00,,,0.00,weatherlink.com 1.10,2013-02-24 15:25:00,
2013-02-24 07:40:00,47.2,28.0,30.23,ENE,60,4.0,11.0,47,0.00,,,0.00,weatherlink.com 1.10,2013-02-24 15:40:00,
2013-02-24 07:55:00,48.0,28.0,30.23,NE,53,2.0,7.0,47,0.00,,,0.00,weatherlink.com 1.10,2013-02-24 15:55:00,
2013-02-24 08:10:00,48.4,28.0,30.23,NNE,13,4.0,10.0,45,0.00,,,0.00,weatherlink.com 1.10,2013-02-24 16:10:00,
2013-02-24 08:25:00,48.8,28.0,30.23,NNW,328,5.0,12.0,44,0.00,,,0.00,weatherlink.com 1.10,2013-02-24 16:25:00,
2013-02-24 08:40:00,49.5,26.0,30.23,NE,39,3.0,15.0,40,0.00,,,0.00,weatherlink.com 1.10,2013-02-24 16:40:00,
2013-02-24 08:55:00,50.2,25.0,30.23,ENE,61,4.0,17.0,38,0.00,,,0.00,weatherlink.com 1.10,2013-02-24 16:55:00,
2013-02-24 09:10:00,50.3,26.0,30.23,NE,35,8.0,13.0,39,0.00,,,0.00,weatherlink.com 1.10,2013-02-24 17:10:00,
2013-02-24 09:25:00,51.8,26.0,30.24,NW,308,2.0,10.0,37,0.00,,,0.00,weatherlink.com 1.10,2013-02-24 17:25:00,
2013-02-24 09:40:00,52.9,27.0,30.24,NNW,343,8.0,10.0,37,0.00,,,0.00,weatherlink.com 1.10,2013-02-24 17:40:00,
2013-02-24 09:55:00,53.3,26.0,30.24,North,354,6.0,13.0,35,0.00,,,0.00,weatherlink.com 1.10,2013-02-24 17:55:00,
2013-02-24 10:10:00,54.0,27.0,30.23,North,3,3.0,11.0,35,0.00,,,0.00,weatherlink.com 1.10,2013-02-24 18:10:00,
2013-02-24 10:25:00,55.0,27.0,30.23,NW,308,6.0,11.0,34,0.00,,,0.00,weatherlink.com 1.10,2013-02-24 18:25:00,
2013-02-24 10:40:00,55.9,27.0,30.23,North,4,5.0,8.0,33,0.00,,,0.00,weatherlink.com 1.10,2013-02-24 18:40:00,
2013-02-24 10:55:00,55.8,26.0,30.23,NW,314,3.0,9.0,32,0.00,,,0.00,weatherlink.com 1.10,2013-02-24 18:55:00,
2013-02-24 11:11:00,56.4,26.0,30.23,NW,308,5.0,10.0,31,0.00,,,0.00,weatherlink.com 1.10,2013-02-24 19:11:00,
2013-02-24 11:26:00,57.6,26.0,30.23,North,11,3.0,7.0,30,0.00,,,0.00,weatherlink.com 1.10,2013-02-24 19:26:00,
2013-02-24 11:41:00,58.3,27.0,30.22,WNW,287,2.0,7.0,30,0.00,,,0.00,weatherlink.com 1.10,2013-02-24 19:41:00,
2013-02-24 11:56:00,58.3,26.0,30.21,NW,318,1.0,8.0,29,0.00,,,0.00,weatherlink.com 1.10,2013-02-24 19:56:00,
2013-02-24 12:11:00,58.9,27.0,30.21,WNW,285,2.0,6.0,29,0.00,,,0.00,weatherlink.com 1.10,2013-02-24 20:11:00,
2013-02-24 12:26:00,59.1,27.0,30.20,NW,308,1.0,7.0,29,0.00,,,0.00,weatherlink.com 1.10,2013-02-24 20:26:00,
2013-02-24 12:41:00,60.8,26.0,30.20,ESE,108,0.0,6.0,27,0.00,,,0.00,weatherlink.com 1.10,2013-02-24 20:41:00,
2013-02-24 12:56:00,61.1,27.0,30.19,ESE,122,4.0,8.0,27,0.00,,,0.00,weatherlink.com 1.10,2013-02-24 20:56:00,
2013-02-24 13:11:00,61.9,27.0,30.19,SSE,163,6.0,7.0,27,0.00,,,0.00,weatherlink.com 1.10,2013-02-24 21:11:00,
2013-02-24 13:26:00,61.7,26.0,30.18,ESE,108,8.0,8.0,26,0.00,,,0.00,weatherlink.com 1.10,2013-02-24 21:26:00,
2013-02-24 13:41:00,63.2,27.0,30.18,NE,51,1.0,5.0,25,0.00,,,0.00,weatherlink.com 1.10,2013-02-24 21:41:00,
2013-02-24 13:56:00,62.2,33.0,30.17,SE,131,1.0,7.0,33,0.00,,,0.00,weatherlink.com 1.10,2013-02-24 21:56:00,
2013-02-24 14:11:00,62.4,33.0,30.17,WSW,239,6.0,8.0,33,0.00,,,0.00,weatherlink.com 1.10,2013-02-24 22:11:00,
2013-02-24 14:26:00,61.0,30.0,30.17,SSE,162,4.0,8.0,31,0.00,,,0.00,weatherlink.com 1.10,2013-02-24 22:26:00,
2013-02-24 14:41:00,61.1,34.0,30.16,SSE,153,1.0,6.0,37,0.00,,,0.00,weatherlink.com 1.10,2013-02-24 22:41:00,
2013-02-24 14:56:00,61.3,33.0,30.16,SSE,157,4.0,7.0,35,0.00,,,0.00,weatherlink.com 1.10,2013-02-24 22:56:00,
2013-02-24 15:11:00,61.0,34.0,30.16,SSW,201,4.0,9.0,36,0.00,,,0.00,weatherlink.com 1.10,2013-02-24 23:11:00,
2013-02-24 15:27:00,61.6,36.0,30.16,SSW,208,3.0,7.0,38,0.00,,,0.00,weatherlink.com 1.10,2013-02-24 23:27:00,
2013-02-24 15:41:00,61.1,34.0,30.16,SE,138,3.0,7.0,36,0.00,,,0.00,weatherlink.com 1.10,2013-02-24 23:41:00,
2013-02-24 15:56:00,61.1,34.0,30.16,South,190,4.0,8.0,37,0.00,,,0.00,weatherlink.com 1.10,2013-02-24 23:56:00,
2013-02-24 16:11:00,60.9,39.0,30.16,SSE,156,2.0,8.0,44,0.00,,,0.00,weatherlink.com 1.10,2013-02-25 00:11:00,
2013-02-24 16:26:00,59.7,41.0,30.16,SSE,153,5.0,9.0,50,0.00,,,0.00,weatherlink.com 1.10,2013-02-25 00:26:00,
2013-02-24 16:41:00,58.5,41.0,30.16,South,179,2.0,9.0,52,0.00,,,0.00,weatherlink.com 1.10,2013-02-25 00:41:00,
2013-02-24 16:56:00,57.8,41.0,30.16,ESE,116,5.0,7.0,54,0.00,,,0.00,weatherlink.com 1.10,2013-02-25 00:56:00,
2013-02-24 17:11:00,57.6,43.0,30.16,SSE,155,1.0,8.0,58,0.00,,,0.00,weatherlink.com 1.10,2013-02-25 01:11:00,
2013-02-24 17:26:00,56.6,43.0,30.16,ESE,120,5.0,7.0,61,0.00,,,0.00,weatherlink.com 1.10,2013-02-25 01:26:00,
2013-02-24 17:41:00,55.6,43.0,30.16,SE,142,2.0,6.0,64,0.00,,,0.00,weatherlink.com 1.10,2013-02-25 01:41:00,
2013-02-24 17:56:00,54.1,43.0,30.16,SSW,208,2.0,6.0,66,0.00,,,0.00,weatherlink.com 1.10,2013-02-25 01:56:00,
2013-02-24 18:11:00,52.6,42.0,30.16,SSE,162,2.0,6.0,68,0.00,,,0.00,weatherlink.com 1.10,2013-02-25 02:11:00,
2013-02-24 18:26:00,51.6,42.0,30.16,ESE,105,5.0,5.0,71,0.00,,,0.00,weatherlink.com 1.10,2013-02-25 02:26:00,
2013-02-24 18:41:00,51.1,42.0,30.16,SE,146,2.0,6.0,70,0.00,,,0.00,weatherlink.com 1.10,2013-02-25 02:41:00,
2013-02-24 18:56:00,50.6,40.0,30.16,South,174,2.0,5.0,68,0.00,,,0.00,weatherlink.com 1.10,2013-02-25 02:56:00,
2013-02-24 19:11:00,50.2,41.0,30.17,South,174,1.0,5.0,72,0.00,,,0.00,weatherlink.com 1.10,2013-02-25 03:11:00,
2013-02-24 19:26:00,49.5,43.0,30.17,SE,135,0.0,5.0,77,0.00,,,0.00,weatherlink.com 1.10,2013-02-25 03:26:00,
2013-02-24 19:41:00,48.7,43.0,30.17,SE,139,1.0,3.0,81,0.00,,,0.00,weatherlink.com 1.10,2013-02-25 03:41:00,
2013-02-24 19:56:00,48.2,43.0,30.18,SE,129,0.0,3.0,83,0.00,,,0.00,weatherlink.com 1.10,2013-02-25 03:56:00,
2013-02-24 20:12:00,48.7,41.0,30.18,SE,133,1.0,4.0,76,0.00,,,0.00,weatherlink.com 1.10,2013-02-25 04:12:00,
2013-02-24 20:27:00,48.9,42.0,30.18,SSE,152,2.0,6.0,76,0.00,,,0.00,weatherlink.com 1.10,2013-02-25 04:27:00,
2013-02-24 20:42:00,48.5,43.0,30.19,SSW,204,1.0,4.0,80,0.00,,,0.00,weatherlink.com 1.10,2013-02-25 04:42:00,
2013-02-24 20:57:00,48.0,43.0,30.19,SE,146,1.0,4.0,84,0.00,,,0.00,weatherlink.com 1.10,2013-02-25 04:57:00,
2013-02-24 21:12:00,47.4,43.0,30.19,SSE,153,2.0,4.0,86,0.00,,,0.00,weatherlink.com 1.10,2013-02-25 05:12:00,
2013-02-24 21:27:00,47.0,43.0,30.20,SSW,198,2.0,4.0,86,0.00,,,0.00,weatherlink.com 1.10,2013-02-25 05:27:00,
2013-02-24 21:42:00,46.9,43.0,30.20,SE,129,0.0,2.0,87,0.00,,,0.00,weatherlink.com 1.10,2013-02-25 05:42:00,
2013-02-24 21:59:00,46.8,43.0,30.21,SSW,198,0.0,2.0,87,0.00,,,0.00,weatherlink.com 1.10,2013-02-25 05:59:00,
2013-02-24 22:12:00,46.5,43.0,30.21,SSE,167,4.0,4.0,88,0.00,,,0.00,weatherlink.com 1.10,2013-02-25 06:12:00,
2013-02-24 22:27:00,46.8,44.0,30.21,South,184,2.0,8.0,89,0.00,,,0.00,weatherlink.com 1.10,2013-02-25 06:27:00,
2013-02-24 22:42:00,46.9,44.0,30.21,SSE,162,3.0,7.0,88,0.00,,,0.00,weatherlink.com 1.10,2013-02-25 06:42:00,
2013-02-24 22:57:00,46.5,43.0,30.21,SE,136,4.0,7.0,86,0.00,,,0.00,weatherlink.com 1.10,2013-02-25 06:57:00,
2013-02-24 23:12:00,46.5,41.0,30.21,SE,142,3.0,9.0,80,0.00,,,0.00,weatherlink.com 1.10,2013-02-25 07:12:00,
2013-02-24 23:27:00,46.5,40.0,30.22,SE,136,3.0,7.0,79,0.00,,,0.00,weatherlink.com 1.10,2013-02-25 07:27:00,
2013-02-24 23:42:00,46.3,41.0,30.22,South,172,2.0,7.0,81,0.00,,,0.00,weatherlink.com 1.10,2013-02-25 07:42:00,
2013-02-24 23:57:00,46.5,42.0,30.22,SSE,152,6.0,8.0,83,0.00,,,0.00,weatherlink.com 1.10,2013-02-25 07:57:00,